createdAt,value
2019-02-07T00:03:44.443Z,101459.84
2019-02-07T00:06:13.082Z,101449.86
2019-02-07T00:08:41.644Z,101448.48
2019-02-07T00:11:10.253Z,101444.52
2019-02-07T00:13:39.021Z,101445.38
2019-02-07T00:16:07.991Z,101444.42
2019-02-07T00:18:36.954Z,101445.70
2019-02-07T00:21:05.721Z,101437.48
2019-02-07T00:23:34.280Z,101436.97
2019-02-07T00:26:02.900Z,101424.55
2019-02-07T00:28:31.450Z,101418.52
2019-02-07T00:31:02.145Z,101412.80
2019-02-07T00:33:32.486Z,101412.38
2019-02-07T00:36:01.317Z,101406.37
2019-02-07T00:38:30.375Z,101406.20
2019-02-07T00:40:58.939Z,101401.45
2019-02-07T00:43:27.579Z,101398.45
2019-02-07T00:45:56.212Z,101398.89
2019-02-07T00:48:24.803Z,101396.27
2019-02-07T00:50:53.358Z,101386.89
2019-02-07T00:53:21.935Z,101381.76
2019-02-07T00:55:50.649Z,101382.13
2019-02-07T00:58:19.228Z,101387.13
2019-02-07T01:00:47.869Z,101379.81
2019-02-07T01:03:16.446Z,101383.63
2019-02-07T01:05:45.260Z,101375.04
2019-02-07T01:08:14.240Z,101376.70
2019-02-07T01:10:42.957Z,101372.84
2019-02-07T01:13:11.602Z,101364.83
2019-02-07T01:15:40.168Z,101362.26
2019-02-07T01:18:09.351Z,101365.80
2019-02-07T01:20:38.850Z,101367.03
2019-02-07T01:23:07.510Z,101365.25
2019-02-07T01:25:36.133Z,101362.27
2019-02-07T01:28:08.025Z,101356.55
2019-02-07T01:30:36.721Z,101351.52
2019-02-07T01:33:05.411Z,101353.98
2019-02-07T01:35:34.453Z,101353.64
2019-02-07T01:38:03.062Z,101346.75
2019-02-07T01:40:33.163Z,101348.83
2019-02-07T01:43:03.386Z,101344.98
2019-02-07T01:45:35.276Z,101341.08
2019-02-07T01:48:03.991Z,101332.56
2019-02-07T01:50:33.013Z,101319.66
2019-02-07T01:53:03.171Z,101314.23
2019-02-07T01:55:33.427Z,101309.55
2019-02-07T01:58:05.219Z,101303.17
2019-02-07T02:00:36.897Z,101303.53
2019-02-07T02:03:05.933Z,101300.55
2019-02-07T02:05:34.627Z,101301.81
2019-02-07T02:08:03.236Z,101293.67
2019-02-07T02:10:34.727Z,101292.86
2019-02-07T02:13:03.337Z,101289.34
2019-02-07T02:15:35.135Z,101288.48
2019-02-07T02:18:04.139Z,101294.03
2019-02-07T02:20:35.939Z,101289.34
2019-02-07T02:23:04.651Z,101287.16
2019-02-07T02:25:33.236Z,101279.47
2019-02-07T02:28:01.971Z,101278.58
2019-02-07T02:30:35.847Z,101275.23
2019-02-07T02:33:05.333Z,101268.84
2019-02-07T02:35:34.246Z,101262.08
2019-02-07T02:38:02.797Z,101264.27
2019-02-07T02:40:31.374Z,101265.50
2019-02-07T02:43:00.650Z,101261.66
2019-02-07T02:45:37.466Z,101256.22
2019-02-07T02:48:02.255Z,101251.97
2019-02-07T02:50:30.925Z,101246.37
2019-02-07T02:52:59.538Z,101236.57
2019-02-07T02:55:32.435Z,101234.39
2019-02-07T02:58:03.710Z,101228.00
2019-02-07T03:03:28.850Z,101228.09
2019-02-07T03:05:59.163Z,101231.45
2019-02-07T03:08:35.120Z,101223.84
2019-02-07T03:11:22.995Z,101215.44
2019-02-07T03:13:53.291Z,101217.23
2019-02-07T03:16:32.459Z,101206.06
2019-02-07T03:22:06.352Z,101200.42
2019-02-07T03:24:45.348Z,101190.61
2019-02-07T03:27:31.538Z,101187.19
2019-02-07T03:32:55.062Z,101188.48
2019-02-07T03:38:06.606Z,101181.87
2019-02-07T03:40:43.102Z,101181.02
2019-02-07T03:43:31.204Z,101169.94
2019-02-07T03:46:07.120Z,101168.73
2019-02-07T03:48:37.403Z,101161.80
2019-02-07T03:51:11.034Z,101160.98
2019-02-07T03:53:53.236Z,101157.09
2019-02-07T03:56:39.927Z,101160.56
2019-02-07T03:59:16.363Z,101167.27
2019-02-07T04:01:58.649Z,101154.39
2019-02-07T04:04:34.628Z,101155.17
2019-02-07T04:07:10.616Z,101157.62
2019-02-07T04:09:52.647Z,101156.75
2019-02-07T04:12:39.294Z,101156.77
2019-02-07T04:15:09.839Z,101157.50
2019-02-07T04:17:43.189Z,101143.49
2019-02-07T04:20:16.642Z,101150.30
2019-02-07T04:22:55.672Z,101143.03
2019-02-07T04:25:32.169Z,101138.70
2019-02-07T04:28:20.237Z,101140.28
2019-02-07T04:30:53.261Z,101145.75
2019-02-07T04:36:27.771Z,101133.78
2019-02-07T04:39:14.722Z,101130.79
2019-02-07T04:41:48.023Z,101119.30
2019-02-07T04:44:27.104Z,101119.72
2019-02-07T04:47:03.094Z,101121.37
2019-02-07T04:49:50.732Z,101119.72
2019-02-07T04:52:23.908Z,101117.96
2019-02-07T04:54:56.575Z,101108.72
2019-02-07T04:57:38.684Z,101103.69
2019-02-07T05:00:18.176Z,101104.34
2019-02-07T05:02:54.239Z,101103.91
2019-02-07T05:05:27.193Z,101099.84
2019-02-07T05:08:06.147Z,101097.58
2019-02-07T05:10:36.496Z,101094.55
2019-02-07T05:16:14.389Z,101099.97
2019-02-07T05:18:47.605Z,101093.81
2019-02-07T05:21:33.144Z,101078.02
2019-02-07T05:24:10.636Z,101066.18
2019-02-07T05:26:49.804Z,101070.12
2019-02-07T05:29:38.077Z,101072.60
2019-02-07T05:32:08.566Z,101079.42
2019-02-07T05:34:38.819Z,101072.23
2019-02-07T05:37:11.779Z,101074.78
2019-02-07T05:39:50.554Z,101072.25
2019-02-07T05:42:37.065Z,101072.30
2019-02-07T05:45:22.719Z,101066.41
2019-02-07T05:47:55.365Z,101050.33
2019-02-07T05:50:31.337Z,101047.82
2019-02-07T05:53:13.567Z,101048.69
2019-02-07T05:55:44.229Z,101049.58
2019-02-07T05:58:17.877Z,101036.38
2019-02-07T06:00:54.162Z,101039.25
2019-02-07T06:03:27.587Z,101038.73
2019-02-07T06:06:00.707Z,101031.92
2019-02-07T06:08:43.157Z,101037.33
2019-02-07T06:11:13.927Z,101035.58
2019-02-07T06:13:44.276Z,101032.98
2019-02-07T06:16:20.264Z,101032.92
2019-02-07T06:18:50.479Z,101032.53
2019-02-07T06:21:33.092Z,101032.59
2019-02-07T06:24:04.822Z,101029.67
2019-02-07T06:26:40.803Z,101031.22
2019-02-07T06:29:13.797Z,101031.70
2019-02-07T06:31:59.110Z,101028.55
2019-02-07T06:34:47.478Z,101031.11
2019-02-07T06:37:17.735Z,101029.45
2019-02-07T06:40:03.813Z,101029.09
2019-02-07T06:42:50.607Z,101026.54
2019-02-07T06:45:20.816Z,101021.42
2019-02-07T06:47:53.943Z,101021.05
2019-02-07T06:50:27.023Z,101023.60
2019-02-07T06:53:13.814Z,101023.20
2019-02-07T06:55:49.844Z,101018.19
2019-02-07T06:58:23.117Z,101008.03
2019-02-07T07:00:53.335Z,101002.59
2019-02-07T07:03:26.288Z,101001.84
2019-02-07T07:05:56.594Z,100995.94
2019-02-07T07:08:42.184Z,100996.92
2019-02-07T07:11:12.400Z,100992.41
2019-02-07T07:13:54.900Z,100980.56
2019-02-07T07:16:25.169Z,100981.88
2019-02-07T07:18:55.729Z,100978.50
2019-02-07T07:21:25.974Z,100973.77
2019-02-07T07:23:56.248Z,100973.36
2019-02-07T07:26:44.830Z,100967.78
2019-02-07T07:32:23.284Z,100961.53
2019-02-07T07:34:54.003Z,100959.78
2019-02-07T07:37:42.175Z,100962.91
2019-02-07T07:40:24.530Z,100965.52
2019-02-07T07:42:55.222Z,100953.52
2019-02-07T07:45:25.422Z,100955.72
2019-02-07T07:48:11.899Z,100958.81
2019-02-07T07:50:53.765Z,100943.91
2019-02-07T07:53:36.106Z,100944.38
2019-02-07T07:56:13.153Z,100938.41
2019-02-07T07:59:01.382Z,100938.45
2019-02-07T08:01:43.721Z,100936.77
2019-02-07T08:04:13.971Z,100935.48
2019-02-07T08:06:56.398Z,100933.88
2019-02-07T08:09:41.675Z,100929.61
2019-02-07T08:12:11.929Z,100935.16
2019-02-07T08:14:54.180Z,100924.53
2019-02-07T08:17:47.491Z,100920.72
2019-02-07T08:20:24.263Z,100923.30
2019-02-07T08:22:57.204Z,100923.73
2019-02-07T08:25:43.819Z,100919.86
2019-02-07T08:28:16.732Z,100913.47
2019-02-07T08:30:58.655Z,100910.06
2019-02-07T08:33:32.358Z,100906.20
2019-02-07T08:36:05.764Z,100906.67
2019-02-07T08:38:49.906Z,100906.64
2019-02-07T08:41:25.922Z,100901.94
2019-02-07T08:44:17.603Z,100897.22
2019-02-07T08:46:47.913Z,100895.50
2019-02-07T08:49:32.223Z,100889.92
2019-02-07T08:52:02.566Z,100880.98
2019-02-07T08:54:41.929Z,100879.69
2019-02-07T08:57:12.174Z,100876.66
2019-02-07T08:59:42.417Z,100871.08
2019-02-07T09:02:13.019Z,100869.78
2019-02-07T09:04:43.220Z,100866.78
2019-02-07T09:07:22.406Z,100864.63
2019-02-07T09:10:08.546Z,100858.67
2019-02-07T09:12:56.881Z,100852.67
2019-02-07T09:18:12.783Z,100847.10
2019-02-07T09:20:46.932Z,100831.64
2019-02-07T09:23:33.627Z,100826.96
2019-02-07T09:26:09.762Z,100817.46
2019-02-07T09:28:40.401Z,100813.28
2019-02-07T09:31:10.756Z,100806.45
2019-02-07T09:33:44.194Z,100801.31
2019-02-07T09:36:14.390Z,100803.37
2019-02-07T09:39:03.581Z,100794.86
2019-02-07T09:41:43.840Z,100802.60
2019-02-07T09:46:55.827Z,100802.42
2019-02-07T09:49:43.974Z,100792.19
2019-02-07T09:52:14.234Z,100795.11
2019-02-07T09:54:56.857Z,100792.48
2019-02-07T09:57:30.419Z,100792.83
2019-02-07T10:00:09.330Z,100774.01
2019-02-07T10:02:39.557Z,100774.01
2019-02-07T10:08:09.115Z,100771.52
2019-02-07T10:10:39.322Z,100766.50
2019-02-07T10:13:25.883Z,100774.57
2019-02-07T10:16:02.243Z,100775.46
2019-02-07T10:18:50.762Z,100768.55
2019-02-07T10:21:37.706Z,100759.91
2019-02-07T10:24:10.784Z,100768.05
2019-02-07T10:26:59.094Z,100764.58
2019-02-07T10:29:29.692Z,100769.64
2019-02-07T10:32:06.064Z,100772.61
2019-02-07T10:34:45.109Z,100768.29
2019-02-07T10:37:21.546Z,100766.63
2019-02-07T10:39:54.807Z,100770.88
2019-02-07T10:42:40.544Z,100768.54
2019-02-07T10:45:13.815Z,100761.56
2019-02-07T10:48:02.819Z,100754.59
2019-02-07T10:50:36.078Z,100751.45
2019-02-07T10:53:06.340Z,100740.58
2019-02-07T10:55:36.635Z,100740.58
2019-02-07T10:58:13.270Z,100737.95
2019-02-07T11:00:43.562Z,100724.34
2019-02-07T11:03:33.544Z,100726.58
2019-02-07T11:06:15.155Z,100710.55
2019-02-07T11:08:45.422Z,100710.55
2019-02-07T11:11:27.713Z,100708.63
2019-02-07T11:13:58.261Z,100701.11
2019-02-07T11:16:31.352Z,100694.56
2019-02-07T11:19:21.292Z,100695.75
2019-02-07T11:21:48.588Z,100687.69
2019-02-07T11:24:25.323Z,100693.69
2019-02-07T11:27:12.029Z,100693.69
2019-02-07T11:29:44.659Z,100693.97
2019-02-07T11:32:14.968Z,100686.91
2019-02-07T11:34:48.004Z,100678.50
2019-02-07T11:37:34.560Z,100664.48
2019-02-07T11:40:07.729Z,100666.45
2019-02-07T11:42:37.954Z,100666.45
2019-02-07T11:45:17.305Z,100665.82
2019-02-07T11:47:47.518Z,100677.58
2019-02-07T11:50:35.332Z,100665.78
2019-02-07T11:53:20.397Z,100662.47
2019-02-07T11:58:42.400Z,100655.70
2019-02-07T12:01:24.810Z,100655.70
2019-02-07T12:04:00.883Z,100653.66
2019-02-07T12:06:46.218Z,100643.43
2019-02-07T12:09:28.581Z,100627.32
2019-02-07T12:12:04.894Z,100641.81
2019-02-07T12:14:37.835Z,100640.52
2019-02-07T12:17:08.546Z,100642.22
2019-02-07T12:19:41.586Z,100630.84
2019-02-07T12:22:14.808Z,100612.05
2019-02-07T12:24:50.809Z,100612.05
2019-02-07T12:27:30.417Z,100599.50
2019-02-07T12:30:00.713Z,100599.50
2019-02-07T12:32:33.901Z,100596.00
2019-02-07T12:35:07.579Z,100603.05
2019-02-07T12:37:53.890Z,100595.92
2019-02-07T12:40:42.084Z,100587.39
2019-02-07T12:43:12.359Z,100587.39
2019-02-07T12:45:42.579Z,100601.52
2019-02-07T12:48:12.841Z,100593.70
2019-02-07T12:51:00.538Z,100590.37
2019-02-07T12:53:39.504Z,100586.17
2019-02-07T12:56:22.225Z,100596.05
2019-02-07T12:59:04.584Z,100589.48
2019-02-07T13:01:38.522Z,100588.95
2019-02-07T13:04:28.006Z,100543.86
2019-02-07T13:07:14.050Z,100543.86
2019-02-07T13:09:46.794Z,100549.09
2019-02-07T13:12:19.836Z,100557.60
2019-02-07T13:14:56.797Z,100557.60
2019-02-07T13:17:29.890Z,100546.98
2019-02-07T13:20:03.033Z,100544.13
2019-02-07T13:22:42.186Z,100544.89
2019-02-07T13:25:12.985Z,100552.03
2019-02-07T13:27:52.362Z,100533.73
2019-02-07T13:30:28.743Z,100541.62
2019-02-07T13:32:58.962Z,100533.09
2019-02-07T13:35:38.188Z,100539.09
2019-02-07T13:38:11.268Z,100537.69
2019-02-07T13:40:53.307Z,100534.27
2019-02-07T13:43:29.259Z,100528.63
2019-02-07T13:46:16.640Z,100551.36
2019-02-07T13:49:03.381Z,100551.36
2019-02-07T13:51:52.740Z,100542.34
2019-02-07T13:54:28.897Z,100550.20
2019-02-07T13:57:02.197Z,100556.16
2019-02-07T13:59:38.591Z,100562.67
2019-02-07T14:02:19.490Z,100558.25
2019-02-07T14:04:49.758Z,100552.69
2019-02-07T14:07:20.088Z,100554.66
2019-02-07T14:09:59.099Z,100565.85
2019-02-07T14:12:35.263Z,100565.85
2019-02-07T14:15:12.982Z,100559.33
2019-02-07T14:17:45.852Z,100572.16
2019-02-07T14:20:25.268Z,100567.77
2019-02-07T14:22:58.497Z,100567.77
2019-02-07T14:25:38.133Z,100563.20
2019-02-07T14:28:24.526Z,100565.16
2019-02-07T14:31:06.124Z,100568.21
2019-02-07T14:33:35.428Z,100575.77
2019-02-07T14:36:08.562Z,100575.77
2019-02-07T14:38:47.795Z,100574.86
2019-02-07T14:44:26.757Z,100570.68
2019-02-07T14:46:58.146Z,100573.53
2019-02-07T14:49:27.106Z,100578.97
2019-02-07T14:51:56.092Z,100578.73
2019-02-07T14:54:25.047Z,100577.67
2019-02-07T14:56:53.630Z,100575.70
2019-02-07T14:59:22.256Z,100575.70
2019-02-07T15:01:50.839Z,100575.95
2019-02-07T15:04:19.803Z,100585.05
2019-02-07T15:06:48.370Z,100573.84
2019-02-07T15:09:17.280Z,100574.91
2019-02-07T15:11:45.936Z,100574.91
2019-02-07T15:14:14.562Z,100571.20
2019-02-07T15:16:43.137Z,100571.20
2019-02-07T15:19:11.957Z,100568.30
2019-02-07T15:21:40.540Z,100568.30
2019-02-07T15:24:09.407Z,100543.27
2019-02-07T15:26:38.404Z,100553.45
2019-02-07T15:29:07.407Z,100544.55
2019-02-07T15:31:36.051Z,100544.55
2019-02-07T15:34:05.052Z,100552.37
2019-02-07T15:36:34.055Z,100550.07
2019-02-07T15:39:03.073Z,100550.77
2019-02-07T15:41:33.166Z,100552.89
2019-02-07T15:44:03.641Z,100552.53
2019-02-07T15:46:32.287Z,100551.27
2019-02-07T15:49:00.844Z,100551.27
2019-02-07T15:51:31.482Z,100560.27
2019-02-07T15:53:59.784Z,100568.44
2019-02-07T15:56:36.272Z,100580.88
2019-02-07T15:59:09.934Z,100580.88
2019-02-07T16:01:40.411Z,100574.21
2019-02-07T16:04:13.428Z,100569.51
2019-02-07T16:06:42.423Z,100569.51
2019-02-07T16:09:11.493Z,100595.80
2019-02-07T16:11:40.545Z,100589.80
2019-02-07T16:14:12.517Z,100583.50
2019-02-07T16:16:48.249Z,100571.48
2019-02-07T16:19:18.154Z,100564.58
2019-02-07T16:21:46.935Z,100565.05
2019-02-07T16:24:16.186Z,100562.17
2019-02-07T16:26:44.726Z,100549.34
2019-02-07T16:29:13.654Z,100574.12
2019-02-07T16:31:42.656Z,100560.88
2019-02-07T16:34:11.760Z,100576.28
2019-02-07T16:36:40.661Z,100573.64
2019-02-07T16:39:09.881Z,100588.64
2019-02-07T16:41:38.419Z,100582.59
2019-02-07T16:44:07.143Z,100574.36
2019-02-07T16:46:36.185Z,100570.90
2019-02-07T16:49:05.228Z,100585.46
2019-02-07T16:51:34.240Z,100600.84
2019-02-07T16:54:02.821Z,100606.45
2019-02-07T16:56:31.379Z,100606.45
2019-02-07T16:59:02.257Z,100596.23
2019-02-07T17:01:30.822Z,100614.55
2019-02-07T17:04:00.696Z,100629.63
2019-02-07T17:06:29.850Z,100638.94
2019-02-07T17:08:58.434Z,100638.94
2019-02-07T17:11:26.984Z,100631.55
2019-02-07T17:13:55.634Z,100607.88
2019-02-07T17:16:24.193Z,100613.67
2019-02-07T17:18:53.173Z,100610.76
2019-02-07T17:21:22.058Z,100604.45
2019-02-07T17:23:50.642Z,100612.44
2019-02-07T17:26:19.191Z,100607.13
2019-02-07T17:28:47.822Z,100604.43
2019-02-07T17:31:16.807Z,100617.79
2019-02-07T17:33:45.393Z,100638.05
2019-02-07T17:36:14.475Z,100628.19
2019-02-07T17:38:43.215Z,100641.89
2019-02-07T17:41:14.637Z,100645.29
2019-02-07T17:43:43.212Z,100643.21
2019-02-07T17:46:12.089Z,100642.34
2019-02-07T17:48:40.990Z,100650.52
2019-02-07T17:51:09.556Z,100643.27
2019-02-07T17:53:38.140Z,100641.89
2019-02-07T17:56:06.837Z,100637.63
2019-02-07T17:58:35.561Z,100644.88
2019-02-07T18:01:07.643Z,100638.06
2019-02-07T18:03:36.646Z,100639.36
2019-02-07T18:06:06.373Z,100643.21
2019-02-07T18:08:38.513Z,100639.35
2019-02-07T18:11:07.196Z,100637.87
2019-02-07T18:13:35.895Z,100644.73
2019-02-07T18:16:04.719Z,100638.28
2019-02-07T18:18:33.277Z,100652.40
2019-02-07T18:21:04.762Z,100648.54
2019-02-07T18:23:33.328Z,100649.27
2019-02-07T18:26:04.924Z,100651.14
2019-02-07T18:28:33.541Z,100666.08
2019-02-07T18:31:02.198Z,100675.14
2019-02-07T18:33:31.243Z,100659.00
2019-02-07T18:36:01.631Z,100663.29
2019-02-07T18:38:33.085Z,100664.14
2019-02-07T18:41:03.563Z,100663.75
2019-02-07T18:43:32.207Z,100665.07
2019-02-07T18:46:01.194Z,100662.50
2019-02-07T18:48:32.321Z,100666.05
2019-02-07T18:51:00.903Z,100661.72
2019-02-07T18:53:32.144Z,100663.97
2019-02-07T18:56:01.003Z,100663.16
2019-02-07T18:58:32.175Z,100664.39
2019-02-07T19:01:00.882Z,100663.06
2019-02-07T19:03:30.675Z,100664.50
2019-02-07T19:05:59.209Z,100664.02
2019-02-07T19:08:27.769Z,100668.28
2019-02-07T19:10:56.446Z,100669.20
2019-02-07T19:13:25.003Z,100668.33
2019-02-07T19:15:57.132Z,100676.50
2019-02-07T19:18:25.705Z,100679.53
2019-02-07T19:20:54.293Z,100689.81
2019-02-07T19:23:23.049Z,100688.41
2019-02-07T19:25:51.626Z,100693.17
2019-02-07T19:28:20.194Z,100693.66
2019-02-07T19:30:48.893Z,100698.02
2019-02-07T19:33:17.544Z,100697.23
2019-02-07T19:35:46.129Z,100701.10
2019-02-07T19:38:14.896Z,100707.58
2019-02-07T19:40:43.619Z,100704.18
2019-02-07T19:43:12.179Z,100698.96
2019-02-07T19:45:40.768Z,100703.73
2019-02-07T19:48:09.772Z,100704.10
2019-02-07T19:50:38.350Z,100705.37
2019-02-07T19:53:07.230Z,100706.91
2019-02-07T19:55:36.348Z,100706.11
2019-02-07T19:58:05.601Z,100706.50
2019-02-07T20:00:35.202Z,100710.81
2019-02-07T20:03:03.902Z,100699.28
2019-02-07T20:05:34.472Z,100707.02
2019-02-07T20:08:03.389Z,100710.54
2019-02-07T20:10:34.831Z,100715.68
2019-02-07T20:13:03.396Z,100705.55
2019-02-07T20:15:40.199Z,100712.41
2019-02-07T20:18:09.996Z,100714.16
2019-02-07T20:20:39.420Z,100722.34
2019-02-07T20:23:09.323Z,100724.95
2019-02-07T20:25:38.512Z,100727.12
2019-02-07T20:28:07.173Z,100728.04
2019-02-07T20:30:38.550Z,100732.77
2019-02-07T20:33:08.249Z,100729.80
2019-02-07T20:35:39.994Z,100735.39
2019-02-07T20:38:09.994Z,100734.53
2019-02-07T20:40:38.742Z,100741.00
2019-02-07T20:43:07.857Z,100745.27
2019-02-07T20:45:36.586Z,100748.72
2019-02-07T20:48:06.785Z,100741.00
2019-02-07T20:50:35.369Z,100743.94
2019-02-07T20:53:05.338Z,100755.48
2019-02-07T20:55:33.900Z,100751.63
2019-02-07T20:58:05.897Z,100750.34
2019-02-07T21:00:39.093Z,100762.37
2019-02-07T21:03:08.110Z,100762.37
2019-02-07T21:05:37.401Z,100764.51
2019-02-07T21:08:06.242Z,100763.64
2019-02-07T21:10:37.283Z,100768.80
2019-02-07T21:13:06.572Z,100770.52
2019-02-07T21:15:35.565Z,100769.27
2019-02-07T21:18:05.216Z,100776.11
2019-02-07T21:20:33.889Z,100772.30
2019-02-07T21:23:05.256Z,100775.70
2019-02-07T21:25:45.774Z,100774.88
2019-02-07T21:28:15.715Z,100778.72
2019-02-07T21:30:44.798Z,100773.61
2019-02-07T21:33:16.039Z,100779.13
2019-02-07T21:35:45.072Z,100784.66
2019-02-07T21:38:14.731Z,100779.02
2019-02-07T21:40:44.185Z,100782.80
2019-02-07T21:43:13.558Z,100788.34
2019-02-07T21:45:44.061Z,100790.47
2019-02-07T21:48:33.586Z,100796.09
2019-02-07T21:51:02.559Z,100798.66
2019-02-07T21:53:33.685Z,100804.16
2019-02-07T21:56:02.254Z,100799.07
2019-02-07T21:58:32.572Z,100795.64
2019-02-07T22:01:04.150Z,100801.24
2019-02-07T22:03:36.011Z,100804.66
2019-02-07T22:06:04.818Z,100807.22
2019-02-07T22:08:33.776Z,100799.96
2019-02-07T22:11:03.873Z,100807.21
2019-02-07T22:13:34.000Z,100807.69
2019-02-07T22:16:05.886Z,100812.76
2019-02-07T22:18:34.476Z,100813.17
2019-02-07T22:21:03.037Z,100811.46
2019-02-07T22:23:34.923Z,100824.28
2019-02-07T22:26:03.498Z,100816.95
2019-02-07T22:28:32.502Z,100810.87
2019-02-07T22:31:04.507Z,100814.64
2019-02-07T22:33:33.244Z,100819.66
2019-02-07T22:36:04.829Z,100812.37
2019-02-07T22:38:33.593Z,100814.89
2019-02-07T22:41:02.166Z,100819.58
2019-02-07T22:43:30.740Z,100820.42
2019-02-07T22:46:00.561Z,100829.39
2019-02-07T22:48:29.167Z,100826.83
2019-02-07T22:50:57.721Z,100841.77
2019-02-07T22:53:26.370Z,100842.09
2019-02-07T22:55:54.959Z,100840.38
2019-02-07T22:58:26.494Z,100841.24
2019-02-07T23:01:03.832Z,100840.83
2019-02-07T23:03:33.937Z,100846.87
2019-02-07T23:06:05.795Z,100834.31
2019-02-07T23:08:34.488Z,100848.94
2019-02-07T23:11:03.211Z,100846.17
2019-02-07T23:13:34.690Z,100846.20
2019-02-07T23:16:03.512Z,100849.25
2019-02-07T23:18:32.067Z,100855.73
2019-02-07T23:21:02.394Z,100850.64
2019-02-07T23:23:31.092Z,100857.50
2019-02-07T23:25:59.672Z,100851.13
2019-02-07T23:28:28.239Z,100851.92
2019-02-07T23:30:56.820Z,100856.21
2019-02-07T23:33:25.449Z,100854.21
2019-02-07T23:35:54.034Z,100858.89
2019-02-07T23:38:22.880Z,100857.25
2019-02-07T23:40:51.464Z,100862.39
2019-02-07T23:43:20.091Z,100859.89
2019-02-07T23:45:48.683Z,100858.08
2019-02-07T23:48:17.238Z,100859.37
2019-02-07T23:50:45.818Z,100863.19
2019-02-07T23:53:15.366Z,100864.02
2019-02-07T23:55:44.216Z,100864.92
2019-02-07T23:58:13.243Z,100865.81
